Time;durP1;ratioP1;P1;durP2;ratioP2;P2;SDS_P1;SDS_P2;PMS_P1;PMS_P2;Temp;Humidity;BMP_temperature;BMP_pressure;BME280_temperature;BME280_humidity;BME280_pressure;Samples;Min_cycle;Max_cycle;Signal;HPM_P1;HPM_P2
2022/06/28 04:02:12;;;;;;;5.00;4.57;;;17.60;99.90;;;;;;5195212;23;21026;-66
2022/06/28 04:04:39;;;;;;;5.83;3.80;;;17.70;99.90;;;;;;4997645;28;20461;-66
2022/06/28 04:07:05;;;;;;;4.00;3.70;;;17.70;99.90;;;;;;4997956;28;20486;-66
2022/06/28 04:09:32;;;;;;;4.60;4.20;;;17.70;99.90;;;;;;4997514;28;20454;-66
2022/06/28 04:11:59;;;;;;;3.73;3.33;;;17.80;99.90;;;;;;4997742;28;20519;-66
2022/06/28 04:14:26;;;;;;;4.50;4.10;;;17.70;99.90;;;;;;4997706;28;20449;-66
2022/06/28 04:16:52;;;;;;;5.43;4.90;;;17.80;99.90;;;;;;4997817;28;20528;-67
2022/06/28 04:19:20;;;;;;;5.70;5.17;;;17.90;99.90;;;;;;4997751;28;20461;-66
2022/06/28 04:21:47;;;;;;;4.53;4.20;;;17.90;99.90;;;;;;4997399;28;20485;-68
2022/06/28 04:24:14;;;;;;;5.90;5.40;;;17.90;99.90;;;;;;4997548;28;20500;-67
2022/06/28 04:26:41;;;;;;;6.40;6.00;;;18.00;99.90;;;;;;4997594;28;20462;-66
2022/06/28 04:29:08;;;;;;;5.80;5.30;;;18.00;99.90;;;;;;4997164;28;20457;-66
2022/06/28 04:31:35;;;;;;;6.03;5.63;;;18.00;99.90;;;;;;4997249;28;20532;-66
2022/06/28 04:34:02;;;;;;;8.27;5.90;;;18.00;99.90;;;;;;4997415;28;20465;-66
2022/06/28 04:36:30;;;;;;;7.33;6.73;;;18.10;99.90;;;;;;4997331;28;20552;-66
2022/06/28 04:38:57;;;;;;;7.83;7.03;;;18.10;99.90;;;;;;4996926;28;20464;-66
2022/06/28 04:41:24;;;;;;;8.00;7.50;;;18.10;99.90;;;;;;4996786;28;20984;-66
2022/06/28 04:43:53;;;;;;;8.27;7.70;;;18.10;99.90;;;;;;4997115;28;20461;-67
2022/06/28 04:46:19;;;;;;;8.37;7.50;;;18.20;99.90;;;;;;4997171;28;20496;-66
2022/06/28 04:48:46;;;;;;;8.87;7.83;;;18.30;99.90;;;;;;4997234;28;20457;-66
2022/06/28 04:51:13;;;;;;;9.23;7.70;;;18.30;99.90;;;;;;4996851;28;20473;-66
2022/06/28 04:53:43;;;;;;;7.57;6.93;;;18.40;99.90;;;;;;4996661;28;20980;-66
2022/06/28 04:56:11;;;;;;;9.43;7.33;;;18.50;99.90;;;;;;4997041;28;20457;-66
2022/06/28 04:58:38;;;;;;;8.87;8.00;;;18.50;99.90;;;;;;4996639;28;20900;-66
2022/06/28 05:01:04;;;;;;;7.70;7.07;;;18.60;99.90;;;;;;4996142;28;20489;-66
2022/06/28 05:03:31;;;;;;;6.93;6.53;;;18.70;99.90;;;;;;4996875;28;20937;-66
2022/06/28 05:05:58;;;;;;;6.37;5.83;;;18.80;99.90;;;;;;4996817;28;20824;-66
2022/06/28 05:08:25;;;;;;;8.03;6.40;;;18.90;99.90;;;;;;4997127;28;20458;-66
2022/06/28 05:10:53;;;;;;;6.90;6.00;;;19.00;99.90;;;;;;4996757;28;20473;-66
2022/06/28 05:13:20;;;;;;;6.00;5.60;;;19.00;99.90;;;;;;4996531;28;20461;-66
2022/06/28 05:15:47;;;;;;;5.73;5.37;;;19.00;99.90;;;;;;4996736;28;20459;-66
2022/06/28 05:18:13;;;;;;;6.37;5.77;;;19.10;99.90;;;;;;4996645;28;20457;-66
2022/06/28 05:20:40;;;;;;;7.90;5.30;;;19.00;99.90;;;;;;4996606;28;20480;-66
2022/06/28 05:23:07;;;;;;;7.40;6.50;;;19.10;99.90;;;;;;4996409;28;20464;-66
2022/06/28 05:25:34;;;;;;;5.87;5.37;;;19.20;99.90;;;;;;4996574;28;20461;-66
2022/06/28 05:28:02;;;;;;;6.40;6.00;;;19.30;99.90;;;;;;4996365;28;20450;-67
2022/06/28 05:30:29;;;;;;;8.53;6.07;;;19.30;99.90;;;;;;4996481;28;20477;-66
2022/06/28 05:32:55;;;;;;;6.80;6.20;;;19.40;99.90;;;;;;4996440;28;20449;-67
2022/06/28 05:35:22;;;;;;;7.93;7.23;;;19.40;99.90;;;;;;4996253;28;20504;-66
2022/06/28 05:37:49;;;;;;;6.17;5.83;;;19.50;99.90;;;;;;4996373;28;20460;-66
2022/06/28 05:40:16;;;;;;;6.67;6.20;;;19.50;99.90;;;;;;4996142;28;20458;-66
2022/06/28 05:42:42;;;;;;;8.37;6.63;;;19.50;99.90;;;;;;4996034;28;20484;-66
2022/06/28 05:45:11;;;;;;;7.43;6.80;;;19.50;99.90;;;;;;4996217;28;20861;-66
2022/06/28 05:47:38;;;;;;;7.40;6.80;;;19.60;99.90;;;;;;4996110;28;20812;-66
2022/06/28 05:50:06;;;;;;;8.03;7.20;;;19.70;99.90;;;;;;4996401;28;20520;-66
2022/06/28 05:52:32;;;;;;;8.57;7.47;;;19.80;99.90;;;;;;4996080;28;20474;-66
2022/06/28 05:54:59;;;;;;;7.47;6.83;;;19.90;99.90;;;;;;4995976;28;20457;-67
2022/06/28 05:57:26;;;;;;;7.53;6.83;;;20.00;99.90;;;;;;4995896;28;20458;-66
2022/06/28 05:59:52;;;;;;;9.10;5.90;;;20.10;99.90;;;;;;4996105;28;20454;-67
2022/06/28 06:02:20;;;;;;;7.13;6.60;;;20.20;99.90;;;;;;4996074;28;20489;-67
2022/06/28 06:04:48;;;;;;;6.87;6.37;;;20.20;99.90;;;;;;4996384;28;20458;-66
2022/06/28 06:07:14;;;;;;;8.27;7.30;;;20.30;99.90;;;;;;4996182;28;20449;-66
2022/06/28 06:09:42;;;;;;;8.00;7.50;;;20.30;99.90;;;;;;4995913;28;20458;-67
2022/06/28 06:12:09;;;;;;;8.00;7.30;;;20.40;99.90;;;;;;4995959;28;20478;-67
2022/06/28 06:14:35;;;;;;;8.30;7.60;;;20.50;99.90;;;;;;4996185;28;20461;-67
2022/06/28 06:17:02;;;;;;;7.90;7.30;;;20.60;99.90;;;;;;4996539;28;20507;-66
2022/06/28 06:19:30;;;;;;;7.73;7.23;;;20.60;99.90;;;;;;4995590;28;20933;-67
2022/06/28 06:21:57;;;;;;;7.50;6.80;;;20.60;99.90;;;;;;4995722;28;20543;-66
2022/06/28 06:24:24;;;;;;;8.00;7.20;;;20.70;99.90;;;;;;4995991;28;20481;-66
2022/06/28 06:26:50;;;;;;;6.23;5.83;;;20.80;99.90;;;;;;4995296;28;20957;-67
2022/06/28 06:29:17;;;;;;;5.80;5.50;;;21.10;99.90;;;;;;4995759;28;20457;-67
2022/06/28 06:31:44;;;;;;;6.70;6.20;;;21.30;99.90;;;;;;4996181;28;20980;-67
2022/06/28 06:34:10;;;;;;;7.03;6.53;;;21.60;99.90;;;;;;4995756;28;20453;-67
2022/06/28 06:36:38;;;;;;;7.80;7.20;;;21.80;99.90;;;;;;4995539;28;20465;-67
2022/06/28 06:39:05;;;;;;;6.13;5.70;;;21.90;99.90;;;;;;4995968;28;20461;-67
2022/06/28 06:41:32;;;;;;;6.60;6.10;;;22.20;99.90;;;;;;4995603;28;20482;-67
2022/06/28 06:44:00;;;;;;;10.23;6.17;;;22.40;99.90;;;;;;4995741;28;20438;-67
2022/06/28 06:46:27;;;;;;;8.17;6.20;;;22.50;99.90;;;;;;4995486;28;20946;-67
2022/06/28 06:48:53;;;;;;;8.00;6.40;;;22.50;99.90;;;;;;4995276;28;20460;-67
2022/06/28 06:51:20;;;;;;;5.93;5.53;;;22.50;99.90;;;;;;4995426;28;20481;-67
2022/06/28 06:53:48;;;;;;;9.77;6.60;;;22.60;99.90;;;;;;4994986;28;20968;-67
2022/06/28 06:56:15;;;;;;;6.53;6.13;;;22.70;99.90;;;;;;4995373;28;20460;-67
2022/06/28 06:58:41;;;;;;;5.70;5.20;;;22.80;99.90;;;;;;4994802;28;20460;-67
2022/06/28 07:01:09;;;;;;;5.73;5.43;;;23.00;99.90;;;;;;4995039;28;20485;-68
2022/06/28 07:03:35;;;;;;;5.53;5.23;;;23.50;99.90;;;;;;4994945;28;20478;-67
2022/06/28 07:06:02;;;;;;;6.30;5.80;;;23.90;99.90;;;;;;4995142;28;20462;-67
2022/06/28 07:08:29;;;;;;;5.60;5.20;;;23.90;99.90;;;;;;4995744;28;20449;-67
2022/06/28 07:10:57;;;;;;;9.70;5.80;;;23.70;99.90;;;;;;4995267;28;20477;-66
2022/06/28 07:13:24;;;;;;;6.33;5.73;;;23.60;99.90;;;;;;4995703;28;20454;-67
2022/06/28 07:15:51;;;;;;;6.30;5.90;;;23.60;99.90;;;;;;4995407;28;20461;-67
2022/06/28 07:18:17;;;;;;;6.60;6.20;;;23.50;99.90;;;;;;4995449;28;20458;-67
2022/06/28 07:20:44;;;;;;;7.50;5.73;;;23.40;99.90;;;;;;4995117;28;20480;-66
2022/06/28 07:23:11;;;;;;;6.80;6.30;;;23.30;99.90;;;;;;4995163;28;20478;-67
2022/06/28 07:25:37;;;;;;;7.77;7.20;;;23.10;99.90;;;;;;4995190;28;20458;-67
2022/06/28 07:28:08;;;;;;;6.73;6.20;;;23.00;99.90;;;;;;4995354;28;20454;-67
2022/06/28 07:30:35;;;;;;;7.70;7.20;;;22.80;99.90;;;;;;4995251;28;20524;-67
2022/06/28 07:33:01;;;;;;;7.37;6.57;;;22.30;99.90;;;;;;4995832;28;20473;-67
2022/06/28 07:35:28;;;;;;;7.03;6.27;;;22.20;99.90;;;;;;4996029;28;20462;-67
2022/06/28 07:37:55;;;;;;;7.40;6.80;;;22.00;99.90;;;;;;4995346;28;20509;-67
2022/06/28 07:40:22;;;;;;;7.90;6.70;;;21.90;99.90;;;;;;4994981;28;20454;-66
2022/06/28 07:42:49;;;;;;;7.20;6.80;;;21.80;99.90;;;;;;4994923;28;20992;-67
2022/06/28 07:45:17;;;;;;;7.00;6.40;;;21.90;99.90;;;;;;4995180;28;20454;-67
2022/06/28 07:47:47;;;;;;;6.37;5.97;;;22.00;99.90;;;;;;4996376;28;20453;-67
2022/06/28 07:53:01;;;;;;;6.13;5.83;;;22.30;99.90;;;;;;4997071;28;20413;-68
2022/06/28 07:55:28;;;;;;;5.50;5.20;;;22.80;99.90;;;;;;4999847;28;20485;-68
2022/06/28 07:57:55;;;;;;;5.80;5.30;;;23.20;99.90;;;;;;4996291;28;20454;-68
2022/06/28 08:00:23;;;;;;;5.67;5.27;;;23.80;99.90;;;;;;4994748;28;20454;-67
2022/06/28 08:02:51;;;;;;;5.90;5.40;;;24.30;99.90;;;;;;4994386;28;20516;-68
2022/06/28 08:05:18;;;;;;;5.60;5.03;;;24.60;99.90;;;;;;4994674;28;20472;-68
2022/06/28 08:07:45;;;;;;;5.70;5.40;;;24.70;99.90;;;;;;4994018;28;20454;-68
2022/06/28 08:10:12;;;;;;;5.40;5.03;;;25.20;99.90;;;;;;4994264;28;20507;-67
2022/06/28 08:12:39;;;;;;;4.73;4.47;;;25.70;99.90;;;;;;4994111;28;20457;-67
2022/06/28 08:15:07;;;;;;;4.27;3.90;;;26.30;99.90;;;;;;4996050;28;20464;-68
2022/06/28 08:17:35;;;;;;;4.80;4.10;;;27.10;99.90;;;;;;4997668;28;20458;-68
2022/06/28 08:20:02;;;;;;;4.60;4.20;;;27.70;99.90;;;;;;4997711;28;20449;-68
2022/06/28 08:22:29;;;;;;;5.10;4.70;;;27.60;99.90;;;;;;4997273;28;20968;-68
2022/06/28 08:24:56;;;;;;;3.40;3.20;;;27.00;99.90;;;;;;4997881;28;20461;-68
2022/06/28 08:27:23;;;;;;;3.93;3.33;;;27.00;99.90;;;;;;4997733;28;20453;-68
2022/06/28 08:29:50;;;;;;;2.93;2.83;;;27.50;99.90;;;;;;4997800;28;20453;-68
2022/06/28 08:32:20;;;;;;;3.30;3.10;;;28.20;99.90;;;;;;4997870;28;20480;-68
2022/06/28 08:34:49;;;;;;;3.03;2.93;;;28.90;99.90;;;;;;4998198;28;20445;-68
2022/06/28 08:37:16;;;;;;;3.10;2.90;;;28.80;99.90;;;;;;4997795;28;20511;-68
2022/06/28 08:39:43;;;;;;;3.30;3.00;;;28.50;99.90;;;;;;4997869;28;20459;-68
2022/06/28 08:42:12;;;;;;;3.10;2.90;;;27.90;99.90;;;;;;4997450;28;20537;-67
2022/06/28 08:44:40;;;;;;;2.93;2.83;;;27.30;99.90;;;;;;4997675;28;20462;-68
2022/06/28 08:47:11;;;;;;;2.43;2.33;;;26.90;99.90;;;;;;4997279;28;20461;-68
2022/06/28 08:49:48;;;;;;;5.50;2.40;;;26.50;99.90;;;;;;4997420;28;20453;-68
2022/06/28 08:52:18;;;;;;;2.37;2.20;;;26.40;99.90;;;;;;4997295;28;20469;-67
2022/06/28 08:54:47;;;;;;;2.30;2.00;;;27.00;99.90;;;;;;4998365;28;20458;-68
2022/06/28 08:57:14;;;;;;;5.20;2.20;;;27.40;99.90;;;;;;4997688;28;20540;-68
2022/06/28 08:59:41;;;;;;;1.80;1.70;;;28.20;99.90;;;;;;4996881;28;20937;-68
2022/06/28 09:02:09;;;;;;;3.63;1.70;;;28.90;99.90;;;;;;4996728;28;20496;-68
2022/06/28 09:04:35;;;;;;;1.23;1.23;;;29.70;99.90;;;;;;4996734;28;21016;-68
2022/06/28 09:07:02;;;;;;;1.47;1.37;;;30.40;95.10;;;;;;4996744;28;20457;-68
2022/06/28 09:09:30;;;;;;;1.40;1.30;;;30.70;96.40;;;;;;4997318;28;20460;-68
2022/06/28 09:11:58;;;;;;;3.90;1.60;;;30.90;93.50;;;;;;4996918;28;20867;-68
2022/06/28 09:14:27;;;;;;;1.37;1.30;;;30.50;93.10;;;;;;4996626;28;20949;-68
2022/06/28 09:16:54;;;;;;;2.60;1.40;;;30.40;93.70;;;;;;4996990;28;20458;-68
2022/06/28 09:19:34;;;;;;;1.30;1.30;;;30.50;93.50;;;;;;4996984;28;20457;-68
2022/06/28 09:22:03;;;;;;;3.60;1.50;;;31.00;92.20;;;;;;4996464;28;21035;-68
2022/06/28 09:24:32;;;;;;;2.30;1.70;;;31.40;94.30;;;;;;4997007;28;20824;-68
2022/06/28 09:27:03;;;;;;;1.73;1.47;;;31.80;92.00;;;;;;4995690;28;20460;-67
2022/06/28 09:29:30;;;;;;;1.80;1.70;;;31.70;89.40;;;;;;4996745;28;20442;-68
2022/06/28 09:31:57;;;;;;;1.60;1.50;;;31.90;88.60;;;;;;4996816;28;20878;-68
2022/06/28 09:34:24;;;;;;;1.47;1.47;;;31.50;88.40;;;;;;4997497;28;20453;-68
2022/06/28 09:36:55;;;;;;;1.87;1.77;;;30.80;87.50;;;;;;4997385;28;20936;-67
2022/06/28 09:39:26;;;;;;;1.63;1.53;;;30.50;90.70;;;;;;4996967;28;20440;-67
2022/06/28 09:41:56;;;;;;;2.00;1.90;;;30.40;90.80;;;;;;4996888;28;20501;-67
2022/06/28 09:44:26;;;;;;;1.93;1.60;;;30.00;89.60;;;;;;4997602;28;20478;-67
2022/06/28 09:46:54;;;;;;;1.53;1.40;;;29.50;90.50;;;;;;4996558;28;20935;-67
2022/06/28 09:49:26;;;;;;;2.20;1.70;;;29.10;93.60;;;;;;4996387;28;20458;-67
2022/06/28 09:51:56;;;;;;;2.30;2.03;;;28.80;94.00;;;;;;4996336;28;20474;-67
2022/06/28 09:54:26;;;;;;;1.40;1.40;;;28.80;92.20;;;;;;4995903;28;20832;-67
2022/06/28 09:56:55;;;;;;;1.60;1.37;;;28.80;92.10;;;;;;4995780;28;20898;-67
2022/06/28 09:59:23;;;;;;;1.30;1.30;;;28.90;92.20;;;;;;4995690;28;20941;-67
2022/06/28 10:01:50;;;;;;;1.50;1.40;;;28.80;92.80;;;;;;4996109;28;20490;-67
2022/06/28 10:04:18;;;;;;;1.70;1.60;;;29.30;93.90;;;;;;4996297;28;20533;-67
2022/06/28 10:06:45;;;;;;;2.23;1.33;;;30.10;92.80;;;;;;4996015;28;20457;-67
2022/06/28 10:09:12;;;;;;;1.80;1.50;;;31.00;90.80;;;;;;4995823;28;20860;-68
2022/06/28 10:17:33;;;;;;;1.80;1.20;;;33.10;79.60;;;;;;4995493;28;20802;-68
2022/06/28 10:20:02;;;;;;;2.67;1.30;;;33.70;80.90;;;;;;4995435;28;20437;-68
2022/06/28 10:22:30;;;;;;;1.77;1.67;;;33.70;76.80;;;;;;4995279;28;20473;-67
2022/06/28 10:24:58;;;;;;;1.57;1.47;;;34.00;74.70;;;;;;4995697;28;20454;-67
2022/06/28 10:27:26;;;;;;;1.37;1.30;;;34.10;75.60;;;;;;4995927;28;20459;-67
2022/06/28 10:30:26;;;;;;;4.03;1.30;;;34.30;73.70;;;;;;4996641;28;20457;-68
2022/06/28 10:32:56;;;;;;;1.33;1.33;;;34.70;69.30;;;;;;4995834;28;20449;-68
2022/06/28 10:36:02;;;;;;;1.20;1.20;;;35.10;69.50;;;;;;4996407;28;20438;-67
2022/06/28 10:38:30;;;;;;;1.10;1.10;;;35.20;68.60;;;;;;4995729;28;20468;-67
2022/06/28 10:41:13;;;;;;;1.10;1.10;;;34.50;68.60;;;;;;4995670;28;20480;-67
2022/06/28 10:43:46;;;;;;;1.20;1.10;;;34.20;69.90;;;;;;4995975;28;20469;-67
2022/06/28 10:46:14;;;;;;;3.40;1.30;;;33.50;69.90;;;;;;4997206;28;20898;-68
2022/06/28 10:49:06;;;;;;;1.57;1.40;;;32.80;70.20;;;;;;4997162;28;20453;-67
2022/06/28 10:51:34;;;;;;;1.73;1.67;;;31.70;71.80;;;;;;4996390;28;20470;-68
2022/06/28 10:54:05;;;;;;;2.23;1.30;;;31.30;75.20;;;;;;4996590;28;20446;-67
2022/06/28 10:56:36;;;;;;;2.37;1.40;;;31.30;76.00;;;;;;4997198;28;20931;-68
2022/06/28 10:59:05;;;;;;;1.50;1.40;;;31.60;76.90;;;;;;4996138;28;20441;-68
2022/06/28 11:01:58;;;;;;;1.60;1.50;;;31.60;74.00;;;;;;4995549;28;20484;-68
2022/06/28 11:04:28;;;;;;;1.47;1.17;;;31.60;74.50;;;;;;4995805;28;20477;-68
2022/06/28 11:06:58;;;;;;;1.50;1.40;;;31.40;76.30;;;;;;4995074;28;20454;-68
2022/06/28 11:09:37;;;;;;;1.30;1.30;;;30.90;74.30;;;;;;4995279;28;20454;-68
2022/06/28 11:12:11;;;;;;;1.50;1.50;;;30.70;77.10;;;;;;4994747;28;20477;-67
2022/06/28 11:14:57;;;;;;;1.27;1.27;;;30.90;77.50;;;;;;4995038;28;20500;-67
2022/06/28 11:17:27;;;;;;;2.10;1.27;;;31.10;77.90;;;;;;4994771;28;20433;-68
2022/06/28 11:19:56;;;;;;;2.27;1.40;;;30.90;78.40;;;;;;4994670;28;20456;-68
2022/06/28 11:22:25;;;;;;;1.40;1.30;;;30.70;77.30;;;;;;4994635;28;20847;-67
2022/06/28 11:24:53;;;;;;;1.77;1.67;;;30.80;78.70;;;;;;4994611;28;20485;-68
2022/06/28 11:27:23;;;;;;;1.30;1.30;;;30.50;79.70;;;;;;4994863;28;20469;-68
2022/06/28 11:29:52;;;;;;;1.53;1.43;;;30.30;78.00;;;;;;4994760;28;20905;-68
2022/06/28 11:32:21;;;;;;;1.57;1.50;;;30.10;79.40;;;;;;4994939;28;20834;-67
2022/06/28 11:35:00;;;;;;;1.70;1.63;;;30.00;78.10;;;;;;4994986;28;20457;-68
2022/06/28 11:37:28;;;;;;;1.20;1.20;;;29.70;79.80;;;;;;4995476;28;20445;-68
2022/06/28 11:39:57;;;;;;;1.30;1.20;;;29.30;84.00;;;;;;4995069;28;20460;-66
2022/06/28 11:42:24;;;;;;;2.77;1.27;;;29.00;80.80;;;;;;4994972;28;20474;-67
2022/06/28 11:44:51;;;;;;;1.60;1.50;;;28.60;81.90;;;;;;4995092;28;20535;-67
2022/06/28 11:47:20;;;;;;;2.13;1.30;;;28.70;84.90;;;;;;4994894;28;20454;-67
2022/06/28 11:49:52;;;;;;;1.60;1.50;;;28.80;87.80;;;;;;4996394;28;20453;-67
2022/06/28 11:52:20;;;;;;;1.57;1.30;;;28.80;84.40;;;;;;4999233;28;20670;-68
2022/06/28 11:54:55;;;;;;;2.87;1.30;;;29.00;85.10;;;;;;4999039;28;20453;-68
2022/06/28 11:57:21;;;;;;;5.87;1.20;;;28.90;79.80;;;;;;4998432;28;20951;-67
2022/06/28 11:59:57;;;;;;;1.50;1.40;;;28.90;81.10;;;;;;4998418;28;20937;-67
2022/06/28 12:02:51;;;;;;;4.73;1.40;;;28.70;82.70;;;;;;4998264;28;20488;-67
2022/06/28 12:05:30;;;;;;;3.00;1.20;;;28.70;83.20;;;;;;4998866;28;20525;-68
2022/06/28 12:07:58;;;;;;;1.10;1.10;;;28.70;81.30;;;;;;5001298;28;20488;-68
2022/06/28 12:10:28;;;;;;;2.43;1.07;;;28.70;83.70;;;;;;5003263;28;20449;-68
2022/06/28 12:12:55;;;;;;;1.40;1.30;;;28.90;81.20;;;;;;5002345;28;20450;-68
2022/06/28 12:15:26;;;;;;;4.57;1.30;;;29.20;83.00;;;;;;4999442;28;20445;-67
2022/06/28 12:17:53;;;;;;;1.10;1.10;;;29.30;80.60;;;;;;4998763;28;20453;-67
2022/06/28 12:20:19;;;;;;;3.63;1.00;;;29.40;79.90;;;;;;4998459;28;20449;-66
2022/06/28 12:22:57;;;;;;;2.17;1.47;;;29.40;79.30;;;;;;4998818;28;20454;-68
2022/06/28 12:25:24;;;;;;;3.70;1.10;;;29.40;78.30;;;;;;4998116;28;20430;-68
2022/06/28 12:27:51;;;;;;;1.53;1.40;;;29.40;77.70;;;;;;4998175;28;20460;-68
2022/06/28 12:30:18;;;;;;;1.30;1.30;;;29.30;77.60;;;;;;4998264;28;20508;-67
2022/06/28 12:32:45;;;;;;;2.73;1.20;;;29.30;78.70;;;;;;4999285;28;20449;-68
2022/06/28 12:35:13;;;;;;;2.60;1.03;;;29.20;77.40;;;;;;4999069;28;20457;-68
2022/06/28 12:37:40;;;;;;;1.40;1.30;;;29.20;75.60;;;;;;4998827;28;20454;-67
2022/06/28 12:40:09;;;;;;;1.60;1.37;;;29.00;77.20;;;;;;4999130;28;20456;-67
2022/06/28 12:42:37;;;;;;;1.33;1.33;;;29.00;77.10;;;;;;4998557;28;20481;-68
2022/06/28 12:45:05;;;;;;;3.03;1.40;;;28.90;78.20;;;;;;4999622;28;20509;-68
2022/06/28 12:47:33;;;;;;;2.40;1.17;;;29.00;79.90;;;;;;4999347;28;20462;-68
2022/06/28 12:50:02;;;;;;;1.43;1.20;;;29.10;79.00;;;;;;4997730;28;21018;-68
2022/06/28 12:52:30;;;;;;;2.13;1.20;;;29.20;79.30;;;;;;4997387;28;20489;-68
2022/06/28 12:54:58;;;;;;;2.60;1.30;;;29.30;78.40;;;;;;4997273;28;20449;-68
2022/06/28 12:57:26;;;;;;;1.07;1.07;;;29.20;76.60;;;;;;4997622;28;20458;-68
2022/06/28 12:59:54;;;;;;;2.00;1.30;;;29.20;76.40;;;;;;4997783;28;20818;-68
2022/06/28 13:02:20;;;;;;;1.40;1.30;;;29.00;78.30;;;;;;4996958;28;20493;-67
2022/06/28 13:04:47;;;;;;;1.00;1.00;;;28.90;79.30;;;;;;4997461;28;20838;-67
2022/06/28 13:07:15;;;;;;;1.00;1.00;;;28.80;79.10;;;;;;4997084;28;20486;-68
2022/06/28 13:09:42;;;;;;;3.20;1.30;;;28.40;79.50;;;;;;4997170;28;20507;-68
2022/06/28 13:12:09;;;;;;;2.00;1.20;;;28.40;79.40;;;;;;4997929;28;20474;-68
2022/06/28 13:14:37;;;;;;;1.50;1.40;;;28.30;79.10;;;;;;4998111;28;20455;-68
2022/06/28 13:17:04;;;;;;;1.30;1.20;;;28.30;79.60;;;;;;4998205;28;20453;-68
2022/06/28 13:19:31;;;;;;;1.70;1.30;;;28.10;79.00;;;;;;4997861;28;20458;-68
2022/06/28 13:21:58;;;;;;;1.53;1.43;;;28.10;83.20;;;;;;4997213;28;20556;-67
2022/06/28 13:24:24;;;;;;;1.30;1.20;;;28.20;79.20;;;;;;4997475;28;20500;-67
2022/06/28 13:26:51;;;;;;;1.00;1.00;;;28.30;81.20;;;;;;4997238;28;20457;-67
2022/06/28 13:29:18;;;;;;;1.50;1.33;;;28.40;80.40;;;;;;4996839;28;20453;-67
2022/06/28 13:31:46;;;;;;;1.37;1.10;;;28.50;79.50;;;;;;4997353;28;20478;-67
2022/06/28 13:34:13;;;;;;;1.70;1.50;;;28.60;79.60;;;;;;4997245;28;20449;-67
2022/06/28 13:36:41;;;;;;;1.97;1.20;;;28.70;79.40;;;;;;4997034;28;20865;-67
2022/06/28 13:39:08;;;;;;;1.80;1.10;;;28.80;79.40;;;;;;4996956;28;20508;-68
2022/06/28 13:41:35;;;;;;;1.60;1.50;;;28.70;77.50;;;;;;4996324;28;20496;-67
2022/06/28 13:44:01;;;;;;;1.70;1.20;;;28.70;77.10;;;;;;4996359;28;20480;-67
2022/06/28 13:46:28;;;;;;;1.70;1.60;;;28.80;77.70;;;;;;4995830;28;21010;-67
2022/06/28 13:48:56;;;;;;;1.43;1.33;;;28.80;78.50;;;;;;4996274;28;20465;-68
2022/06/28 13:51:23;;;;;;;1.60;1.50;;;28.70;80.70;;;;;;4996433;28;20866;-68
2022/06/28 13:53:50;;;;;;;1.37;1.37;;;28.70;79.10;;;;;;4996410;28;20450;-68
2022/06/28 13:56:16;;;;;;;3.03;1.40;;;28.70;80.10;;;;;;4996286;28;20849;-68
2022/06/28 13:58:43;;;;;;;1.60;1.50;;;28.80;78.60;;;;;;4996198;28;20464;-68
2022/06/28 14:01:10;;;;;;;1.27;1.27;;;28.70;77.90;;;;;;4995891;28;20489;-67
2022/06/28 14:03:36;;;;;;;4.20;1.40;;;28.70;80.20;;;;;;4995642;28;20821;-67
2022/06/28 14:06:05;;;;;;;1.60;1.20;;;28.50;77.70;;;;;;4995887;28;20467;-67
2022/06/28 14:08:31;;;;;;;3.13;1.90;;;28.30;75.80;;;;;;4995529;28;20968;-67
2022/06/28 14:10:58;;;;;;;3.50;1.37;;;28.30;79.10;;;;;;4995506;28;21003;-66
2022/06/28 14:13:25;;;;;;;1.53;1.50;;;28.20;75.60;;;;;;4995430;28;20457;-67
2022/06/28 14:15:53;;;;;;;1.17;1.17;;;28.10;74.90;;;;;;4996627;28;20501;-67
2022/06/28 14:18:21;;;;;;;1.37;1.37;;;28.10;76.90;;;;;;4996136;28;20480;-67
2022/06/28 14:20:48;;;;;;;2.47;1.13;;;28.10;79.60;;;;;;4995525;28;20481;-67
2022/06/28 14:23:16;;;;;;;1.70;1.47;;;28.30;80.70;;;;;;4995538;28;20480;-67
2022/06/28 14:25:43;;;;;;;1.27;1.27;;;28.30;78.60;;;;;;4995821;28;20492;-67
2022/06/28 14:28:11;;;;;;;1.97;1.83;;;28.20;81.50;;;;;;4995734;28;20461;-67
2022/06/28 14:30:38;;;;;;;3.83;1.50;;;28.30;78.30;;;;;;4995493;28;20815;-67
2022/06/28 14:33:06;;;;;;;1.50;1.40;;;28.40;79.50;;;;;;4995370;28;20460;-67
2022/06/28 14:35:34;;;;;;;1.80;1.70;;;28.50;75.80;;;;;;4995699;28;20458;-67
2022/06/28 14:38:01;;;;;;;1.30;1.30;;;28.60;80.40;;;;;;4995325;28;20960;-67
2022/06/28 14:40:31;;;;;;;1.77;1.50;;;28.60;79.20;;;;;;4994826;28;20979;-66
2022/06/28 14:42:57;;;;;;;2.10;1.40;;;28.70;77.30;;;;;;4995187;28;20454;-67
2022/06/28 14:45:24;;;;;;;1.07;1.07;;;28.70;78.80;;;;;;4994931;28;20481;-67
2022/06/28 14:47:51;;;;;;;1.70;1.60;;;28.70;76.40;;;;;;4995251;28;20458;-67
2022/06/28 14:50:18;;;;;;;1.83;1.73;;;28.80;76.30;;;;;;4995088;28;20461;-66
2022/06/28 14:52:44;;;;;;;4.63;1.80;;;28.80;75.30;;;;;;4994861;28;20796;-67
2022/06/28 14:55:11;;;;;;;2.70;1.20;;;28.80;79.00;;;;;;4995269;28;20464;-67
2022/06/28 14:57:39;;;;;;;3.60;1.40;;;28.90;80.40;;;;;;4995422;28;20473;-67
2022/06/28 15:00:09;;;;;;;1.40;1.40;;;28.60;76.80;;;;;;4995269;28;20473;-67
2022/06/28 15:02:36;;;;;;;1.43;1.40;;;28.80;77.80;;;;;;4994699;28;20482;-66
2022/06/28 15:05:03;;;;;;;1.03;1.00;;;29.00;76.90;;;;;;4995002;28;20579;-67
2022/06/28 15:07:30;;;;;;;1.30;1.10;;;29.00;77.20;;;;;;4995071;28;20979;-67
2022/06/28 15:09:57;;;;;;;1.40;1.30;;;28.90;77.40;;;;;;4995169;28;20966;-68
2022/06/28 15:12:24;;;;;;;1.30;1.20;;;28.80;77.30;;;;;;4995088;28;20473;-67
2022/06/28 15:14:52;;;;;;;1.30;1.30;;;28.80;77.50;;;;;;4995310;28;20504;-67
2022/06/28 15:17:19;;;;;;;1.33;1.33;;;28.70;79.80;;;;;;4994942;28;20457;-67
2022/06/28 15:19:46;;;;;;;1.50;1.40;;;28.80;76.80;;;;;;4995018;28;20480;-67
2022/06/28 15:33:11;;;;;;;4.00;1.83;;;28.70;78.90;;;;;;4994989;28;20434;-67
2022/06/28 15:35:38;;;;;;;5.03;1.20;;;28.70;78.20;;;;;;4994859;28;20533;-67
2022/06/28 15:38:04;;;;;;;1.50;1.40;;;28.80;79.30;;;;;;4994732;28;20453;-67
2022/06/28 15:40:31;;;;;;;2.13;1.37;;;28.90;79.00;;;;;;4994513;28;20454;-67
2022/06/28 15:42:58;;;;;;;1.10;1.10;;;28.90;79.00;;;;;;4995056;28;20457;-66
2022/06/28 15:45:26;;;;;;;1.50;1.40;;;28.80;76.60;;;;;;4994805;28;20482;-67
2022/06/28 15:47:53;;;;;;;1.53;1.10;;;28.60;78.00;;;;;;4995022;28;20454;-67
2022/06/28 15:50:20;;;;;;;1.40;1.40;;;28.30;77.10;;;;;;4994490;28;20469;-66
2022/06/28 15:52:47;;;;;;;1.43;1.40;;;28.20;79.60;;;;;;4994822;28;20453;-67
2022/06/28 15:55:14;;;;;;;1.33;1.33;;;28.00;78.10;;;;;;4994443;28;20790;-67
2022/06/28 15:57:41;;;;;;;2.10;1.57;;;27.80;78.90;;;;;;4995068;28;20453;-67
2022/06/28 16:00:09;;;;;;;1.77;1.60;;;27.70;79.80;;;;;;4994677;28;20465;-67
2022/06/28 16:02:39;;;;;;;1.60;1.50;;;27.60;79.30;;;;;;4994304;28;20486;-68
2022/06/28 16:05:06;;;;;;;1.53;1.20;;;27.50;79.80;;;;;;4994497;28;20543;-67
2022/06/28 16:07:33;;;;;;;2.10;1.53;;;27.40;79.60;;;;;;4994466;28;20461;-67
2022/06/28 16:10:00;;;;;;;1.90;1.60;;;27.30;81.30;;;;;;4994412;28;20454;-67
2022/06/28 16:15:12;;;;;;;1.13;1.13;;;27.30;81.80;;;;;;4994101;28;20477;-66
2022/06/28 16:17:40;;;;;;;3.10;2.90;;;27.30;81.40;;;;;;4994817;28;20462;-67
2022/06/28 16:20:07;;;;;;;1.83;1.73;;;27.40;84.60;;;;;;4994383;28;20454;-67
2022/06/28 16:22:34;;;;;;;1.67;1.60;;;27.40;85.30;;;;;;4994127;28;20477;-67
2022/06/28 16:25:01;;;;;;;2.70;1.90;;;27.30;84.00;;;;;;4994126;28;20489;-67
2022/06/28 16:27:28;;;;;;;1.90;1.80;;;27.30;83.80;;;;;;4993964;28;20512;-67
2022/06/28 16:29:55;;;;;;;1.63;1.53;;;27.20;83.90;;;;;;4994301;28;20465;-67
2022/06/28 16:32:22;;;;;;;1.80;1.70;;;27.10;84.90;;;;;;4994313;28;20485;-67
2022/06/28 16:34:50;;;;;;;1.60;1.60;;;27.10;85.60;;;;;;4995175;28;20453;-69
2022/06/28 16:37:17;;;;;;;1.50;1.50;;;27.00;86.30;;;;;;4998250;28;20457;-67
2022/06/28 16:39:44;;;;;;;3.33;2.00;;;26.90;86.00;;;;;;4998066;28;20507;-67
2022/06/28 16:42:10;;;;;;;2.10;1.97;;;26.80;88.00;;;;;;4998143;28;20980;-66
2022/06/28 16:44:37;;;;;;;2.03;1.93;;;26.70;87.50;;;;;;4998138;28;20485;-67
2022/06/28 16:47:05;;;;;;;2.10;1.90;;;26.50;88.20;;;;;;4998411;28;20454;-68
2022/06/28 16:49:32;;;;;;;1.77;1.67;;;26.50;89.00;;;;;;4998264;28;20449;-67
2022/06/28 16:52:00;;;;;;;3.00;2.30;;;26.40;89.70;;;;;;4997323;28;20481;-67
2022/06/28 16:54:27;;;;;;;1.97;1.87;;;26.40;89.80;;;;;;4997960;28;20453;-67
2022/06/28 16:56:54;;;;;;;4.07;1.97;;;26.30;90.30;;;;;;4997584;28;20457;-67
2022/06/28 16:59:20;;;;;;;2.30;2.20;;;26.20;91.00;;;;;;4997578;28;20508;-67
2022/06/28 17:01:47;;;;;;;5.10;2.20;;;26.30;90.90;;;;;;4996940;28;20481;-66
2022/06/28 17:04:14;;;;;;;1.87;1.77;;;26.30;91.30;;;;;;4996924;28;20450;-67
2022/06/28 17:09:31;;;;;;;2.10;2.00;;;26.30;90.60;;;;;;4991875;28;20585;-67
2022/06/28 17:11:58;;;;;;;3.90;2.60;;;26.30;91.20;;;;;;4997492;28;20992;-67
2022/06/28 17:14:25;;;;;;;2.97;2.77;;;26.30;91.20;;;;;;4997339;28;20450;-67
2022/06/28 17:16:52;;;;;;;2.50;2.23;;;26.30;91.50;;;;;;4997478;28;20453;-67
2022/06/28 17:19:19;;;;;;;2.50;2.40;;;26.30;91.60;;;;;;4997153;28;20459;-67